createdAt,value
2018-09-25T00:00:07.271Z,7.50
2018-09-25T00:05:15.742Z,7.40
2018-09-25T00:10:24.364Z,7.30
2018-09-25T00:15:33.343Z,7.30
2018-09-25T00:28:19.355Z,7.20
2018-09-25T00:33:27.890Z,7.20
2018-09-25T00:38:36.579Z,7.20
2018-09-25T00:43:45.073Z,7.10
2018-09-25T00:48:53.705Z,7.10
2018-09-25T00:54:02.187Z,7.10
2018-09-25T00:59:18.512Z,7.10
2018-09-25T01:04:33.668Z,7.10
2018-09-25T01:09:47.432Z,7.10
2018-09-25T01:14:57.593Z,7.10
2018-09-25T01:20:06.059Z,7.10
2018-09-25T01:25:14.697Z,7.10
2018-09-25T01:30:23.328Z,7.10
2018-09-25T01:35:31.713Z,7.00
2018-09-25T01:40:40.330Z,7.00
2018-09-25T01:45:48.705Z,7.00
2018-09-25T01:50:57.339Z,7.00
2018-09-25T01:56:13.729Z,7.00
2018-09-25T02:01:22.232Z,7.00
2018-09-25T02:06:30.672Z,7.00
2018-09-25T02:11:39.158Z,7.00
2018-09-25T02:16:47.698Z,6.90
2018-09-25T02:21:56.175Z,6.90
2018-09-25T02:27:04.543Z,6.90
2018-09-25T02:32:13.193Z,6.90
2018-09-25T02:37:21.884Z,6.80
2018-09-25T02:42:30.521Z,6.80
2018-09-25T02:47:39.140Z,6.70
2018-09-25T02:52:47.867Z,6.70
2018-09-25T02:57:57.064Z,6.70
2018-09-25T03:03:05.640Z,6.60
2018-09-25T03:08:14.372Z,6.60
2018-09-25T03:13:23.031Z,6.60
2018-09-25T03:18:31.499Z,6.60
2018-09-25T03:23:40.709Z,6.60
2018-09-25T03:28:49.313Z,6.50
2018-09-25T03:34:04.400Z,6.50
2018-09-25T03:39:18.965Z,6.50
2018-09-25T03:44:27.297Z,6.40
2018-09-25T03:49:36.069Z,6.40
2018-09-25T03:54:44.500Z,6.40
2018-09-25T03:59:52.994Z,6.40
2018-09-25T04:05:05.300Z,6.30
2018-09-25T04:10:16.914Z,6.30
2018-09-25T04:15:25.575Z,6.20
2018-09-25T04:20:41.820Z,6.20
2018-09-25T04:25:50.351Z,6.20
2018-09-25T04:30:58.793Z,6.10
2018-09-25T04:41:45.493Z,6.10
2018-09-25T04:57:56.240Z,6.00
2018-09-25T05:03:04.924Z,5.90
2018-09-25T05:08:13.444Z,5.90
2018-09-25T05:13:22.024Z,5.90
2018-09-25T05:18:30.496Z,5.90
2018-09-25T05:23:38.959Z,5.90
2018-09-25T05:28:47.575Z,5.90
2018-09-25T05:34:20.309Z,5.90
2018-09-25T05:39:28.915Z,6.00
2018-09-25T05:44:38.584Z,6.00
2018-09-25T05:49:47.235Z,6.00
2018-09-25T05:54:55.810Z,6.00
2018-09-25T06:00:04.250Z,6.10
2018-09-25T06:05:12.768Z,6.10
2018-09-25T06:10:21.224Z,6.10
2018-09-25T06:15:30.421Z,6.20
2018-09-25T07:16:45.775Z,6.90
2018-09-25T07:38:52.184Z,7.60
2018-09-25T08:00:40.548Z,8.50
2018-09-25T08:05:49.049Z,8.60
2018-09-25T08:10:57.657Z,8.80
2018-09-25T08:16:13.197Z,9.00
2018-09-25T08:49:29.398Z,10.20
2018-09-25T08:54:39.540Z,10.50
2018-09-25T09:10:54.115Z,11.40
2018-09-25T09:27:37.569Z,12.40
2018-09-25T09:32:46.139Z,12.70
2018-09-25T09:37:57.013Z,13.10
2018-09-25T09:43:09.288Z,13.40
2018-09-25T09:48:17.855Z,13.40
2018-09-25T09:53:26.479Z,13.40
2018-09-25T09:58:35.224Z,13.40
2018-09-25T10:03:43.954Z,13.90
2018-09-25T10:08:53.817Z,13.90
2018-09-25T10:14:02.437Z,13.50
2018-09-25T10:19:11.103Z,13.70
2018-09-25T10:24:19.648Z,14.10
2018-09-25T10:29:28.129Z,14.60
2018-09-25T10:34:36.721Z,14.90
2018-09-25T10:39:45.350Z,15.20
2018-09-25T10:44:53.984Z,15.40
2018-09-25T10:50:02.848Z,14.90
2018-09-25T10:55:11.372Z,15.10
2018-09-25T11:00:19.928Z,15.40
2018-09-25T11:05:28.275Z,15.20
2018-09-25T11:10:36.860Z,15.60
2018-09-25T11:15:45.389Z,16.10
2018-09-25T11:20:53.939Z,16.00
2018-09-25T11:26:02.389Z,16.40
2018-09-25T11:31:10.877Z,16.60
2018-09-25T11:36:19.354Z,17.00
2018-09-25T11:41:27.983Z,17.10
2018-09-25T11:46:36.335Z,17.40
2018-09-25T11:51:44.648Z,17.40
2018-09-25T11:56:53.076Z,17.60
2018-09-25T12:02:01.542Z,17.20
2018-09-25T12:07:10.158Z,17.10
2018-09-25T12:12:18.688Z,17.00
2018-09-25T12:17:27.199Z,17.20
2018-09-25T12:22:35.667Z,17.10
2018-09-25T12:27:44.154Z,17.40
2018-09-25T12:32:52.705Z,17.40
2018-09-25T12:38:01.170Z,17.70
2018-09-25T12:43:09.719Z,17.60
2018-09-25T12:48:18.164Z,17.10
2018-09-25T12:53:26.676Z,16.70
2018-09-25T12:58:35.173Z,16.60
2018-09-25T13:03:43.708Z,16.80
2018-09-25T13:08:52.267Z,17.00
2018-09-25T13:14:00.772Z,17.30
2018-09-25T13:19:09.320Z,17.20
2018-09-25T13:24:17.880Z,17.20
2018-09-25T13:29:26.249Z,17.10
2018-09-25T13:34:34.761Z,17.10
2018-09-25T13:39:43.340Z,16.70
2018-09-25T13:44:51.878Z,16.50
2018-09-25T13:50:00.306Z,16.50
2018-09-25T13:55:08.819Z,16.70
2018-09-25T14:00:17.333Z,16.80
2018-09-25T14:05:26.044Z,16.90
2018-09-25T14:10:34.719Z,17.10
2018-09-25T14:15:43.329Z,17.10
2018-09-25T14:20:51.740Z,17.30
2018-09-25T14:26:00.253Z,17.30
2018-09-25T14:31:08.848Z,17.20
2018-09-25T14:36:17.343Z,17.10
2018-09-25T14:41:25.872Z,17.20
2018-09-25T14:46:34.335Z,16.90
2018-09-25T14:51:42.840Z,16.90
2018-09-25T14:56:51.348Z,16.90
2018-09-25T15:01:59.923Z,16.90
2018-09-25T15:07:08.398Z,16.70
2018-09-25T15:12:16.979Z,16.50
2018-09-25T15:17:25.522Z,16.40
2018-09-25T15:22:41.020Z,16.30
2018-09-25T15:27:49.552Z,16.30
2018-09-25T15:32:58.064Z,16.10
2018-09-25T15:38:06.707Z,16.00
2018-09-25T15:43:15.260Z,15.80
2018-09-25T15:48:23.815Z,15.80
2018-09-25T15:53:32.308Z,15.60
2018-09-25T15:58:41.685Z,15.40
2018-09-25T16:03:50.227Z,15.30
2018-09-25T16:08:58.856Z,15.00
2018-09-25T16:14:07.331Z,14.90
2018-09-25T16:19:15.894Z,14.70
2018-09-25T16:24:24.605Z,14.80
2018-09-25T16:29:33.127Z,14.80
2018-09-25T16:34:41.616Z,14.80
2018-09-25T16:39:50.098Z,14.80
2018-09-25T16:44:58.670Z,14.70
2018-09-25T16:50:07.162Z,14.70
2018-09-25T16:55:15.646Z,14.60
2018-09-25T17:00:24.174Z,14.50
2018-09-25T17:05:32.813Z,14.50
2018-09-25T17:10:41.345Z,14.30
2018-09-25T17:15:49.971Z,14.20
2018-09-25T17:20:58.516Z,14.10
2018-09-25T17:26:07.001Z,14.00
2018-09-25T17:31:16.543Z,13.90
2018-09-25T17:36:24.912Z,13.70
2018-09-25T17:41:33.405Z,13.60
2018-09-25T17:46:42.064Z,13.50
2018-09-25T17:51:50.732Z,13.40
2018-09-25T17:56:59.701Z,13.20
2018-09-25T18:02:09.075Z,13.10
2018-09-25T18:07:18.053Z,13.00
2018-09-25T18:12:26.743Z,13.00
2018-09-25T18:17:35.341Z,12.80
2018-09-25T18:22:43.923Z,12.60
2018-09-25T18:27:52.530Z,12.50
2018-09-25T18:33:01.095Z,12.40
2018-09-25T18:38:09.816Z,12.30
2018-09-25T18:43:18.787Z,12.20
2018-09-25T18:48:27.940Z,12.10
2018-09-25T18:53:36.677Z,12.00
2018-09-25T18:58:45.265Z,11.90
2018-09-25T19:03:53.740Z,11.70
2018-09-25T19:09:02.220Z,11.60
2018-09-25T19:14:10.726Z,11.50
2018-09-25T19:19:19.402Z,11.40
2018-09-25T19:24:27.887Z,11.30
2018-09-25T19:29:36.337Z,11.20
2018-09-25T19:34:44.762Z,11.10
2018-09-25T19:39:53.144Z,11.00
2018-09-25T19:45:01.782Z,10.90
2018-09-25T19:50:10.461Z,10.70
2018-09-25T19:55:19.268Z,10.70
2018-09-25T20:00:28.442Z,10.60
2018-09-25T20:05:37.588Z,10.50
2018-09-25T20:10:46.136Z,10.40
2018-09-25T20:15:54.714Z,10.40
2018-09-25T20:21:03.196Z,10.30
2018-09-25T20:26:11.921Z,10.20
2018-09-25T20:31:20.674Z,10.10
2018-09-25T20:36:29.139Z,10.10
2018-09-25T20:41:38.687Z,10.00
2018-09-25T20:46:47.229Z,10.00
2018-09-25T20:51:55.719Z,10.00
2018-09-25T20:57:04.243Z,9.90
2018-09-25T21:02:12.732Z,9.80
2018-09-25T21:07:21.186Z,9.70
2018-09-25T21:12:29.934Z,9.60
2018-09-25T21:17:38.368Z,9.60
2018-09-25T21:22:46.827Z,9.50
2018-09-25T21:27:55.312Z,9.50
2018-09-25T21:33:03.775Z,9.40
2018-09-25T21:38:12.417Z,9.20
2018-09-25T21:43:20.970Z,9.10
2018-09-25T21:48:29.727Z,9.00
2018-09-25T21:53:38.253Z,9.00
2018-09-25T21:58:46.896Z,8.90
2018-09-25T22:03:55.496Z,8.80
2018-09-25T22:09:04.032Z,8.70
2018-09-25T22:14:12.393Z,8.70
2018-09-25T22:19:21.072Z,8.60
2018-09-25T22:24:29.664Z,8.50
2018-09-25T22:29:38.159Z,8.50
2018-09-25T22:34:46.645Z,8.40
2018-09-25T22:39:55.125Z,8.40
2018-09-25T22:45:03.843Z,8.20
2018-09-25T22:50:12.542Z,8.20
2018-09-25T22:55:20.990Z,8.20
2018-09-25T23:00:29.483Z,8.10
2018-09-25T23:05:38.179Z,8.10
2018-09-25T23:10:46.804Z,8.10
2018-09-25T23:15:55.283Z,8.00
2018-09-25T23:21:03.845Z,8.00
2018-09-25T23:26:12.383Z,7.90
2018-09-25T23:31:20.936Z,7.90
2018-09-25T23:36:29.466Z,7.90
2018-09-25T23:41:42.732Z,7.80
2018-09-25T23:47:09.569Z,7.80
2018-09-25T23:52:19.205Z,7.70
2018-09-25T23:58:28.344Z,7.60
